EDT,Max TemperatureF,Mean TemperatureF,Min TemperatureF,Max Dew PointF,MeanDew PointF,Min DewpointF,Max Humidity, Mean Humidity, Min Humidity, Max Sea Level PressureIn, Mean Sea Level PressureIn, Min Sea Level PressureIn, Max VisibilityMiles, Mean VisibilityMiles, Min VisibilityMiles, Max Wind SpeedMPH, Mean Wind SpeedMPH, Max Gust SpeedMPH,PrecipitationIn, CloudCover, Events, WindDirDegrees
2013-6-1,79,72,64,65,62,60,87,72,56,29.79,29.73,29.67,10,8,2,24,12,29,1.02,7,Rain-Thunderstorm,205
2013-6-2,64,54,44,61,50,39,93,75,57,30.04,29.84,29.65,10,8,0,20,11,23,0.06,7,Fog-Rain,289
2013-6-3,67,54,41,44,40,36,89,65,40,30.12,30.08,30.04,10,10,10,15,4,26,0.00,2,,281
2013-6-4,74,61,47,49,44,41,86,62,38,30.21,30.17,30.13,10,10,10,12,4,14,0.00,4,,82
2013-6-5,71,64,57,49,43,35,72,52,31,30.17,30.10,30.02,10,10,10,17,9,22,0.01,7,Rain,81
2013-6-6,66,61,55,53,50,46,86,74,62,30.02,29.95,29.91,10,10,7,15,9,18,0.10,8,Rain,62
2013-6-7,73,62,50,50,47,45,89,64,38,29.96,29.92,29.87,10,10,10,20,8,24,0.00,2,,67
2013-6-8,75,63,51,54,49,45,89,62,35,30.05,29.99,29.92,10,10,10,9,3,13,0.00,4,,91
2013-6-9,81,69,57,60,56,52,80,64,48,30.06,30.00,29.91,10,10,8,21,10,25,0.00,6,,107
2013-6-10,75,69,63,65,62,55,93,78,63,29.90,29.81,29.75,10,8,3,16,8,20,0.19,7,Rain,53
2013-6-11,81,70,59,64,60,57,97,78,58,29.94,29.88,29.83,10,6,0,18,7,22,0.00,4,Fog,259
2013-6-12,77,70,62,67,63,59,93,81,69,29.94,29.80,29.65,10,6,2,21,6,28,0.87,7,Rain-Thunderstorm,74
2013-6-13,78,70,61,64,59,54,93,72,50,29.99,29.79,29.64,10,8,2,23,10,31,0.26,5,Rain,355
2013-6-14,80,68,55,55,51,46,86,59,32,30.12,30.06,30.00,10,10,10,14,5,17,0.00,1,,344
2013-6-15,75,65,55,61,57,51,87,74,61,30.07,30.01,29.88,10,10,9,21,6,25,0.03,6,Rain,193
2013-6-16,80,71,62,64,62,56,93,71,48,29.90,29.86,29.79,10,8,1,21,10,25,1.18,6,Rain-Thunderstorm,247
2013-6-17,85,72,58,62,57,53,93,64,34,29.94,29.90,29.86,10,9,3,20,7,28,0.00,4,Rain-Thunderstorm,290
2013-6-18,72,64,55,61,50,38,90,61,31,30.10,30.02,29.94,10,10,6,21,11,26,0.00,5,,58
2013-6-19,76,62,47,48,44,41,80,56,31,30.19,30.15,30.11,10,10,10,10,4,,0.00,0,,76
2013-6-20,84,68,52,57,50,44,89,60,31,30.21,30.17,30.13,10,10,10,10,3,,0.00,1,,188
2013-6-21,84,74,63,63,60,54,78,61,44,30.17,30.10,30.01,10,10,10,22,8,28,0.00,4,,182
2013-6-22,87,78,69,68,65,64,84,66,48,30.10,30.03,29.97,10,10,8,15,6,30,0.00,6,,216
2013-6-23,89,80,70,68,65,63,90,67,44,30.03,30.00,29.95,10,10,5,20,10,24,0.00,3,,213
2013-6-24,87,78,69,68,65,62,84,65,45,30.05,29.99,29.88,10,10,8,21,10,45,T,4,Rain,222
2013-6-25,81,74,67,70,66,62,90,80,69,30.02,29.91,29.84,10,8,0,25,8,36,0.67,6,Fog-Rain-Thunderstorm,238
2013-6-26,84,75,66,69,67,63,90,74,58,29.87,29.80,29.74,10,10,8,18,6,22,0.00,5,,156
2013-6-27,87,78,68,70,67,64,93,71,48,29.77,29.73,29.67,10,8,1,20,6,24,0.00,5,,288
2013-6-28,82,74,65,66,62,59,90,71,51,29.67,29.61,29.55,10,8,4,18,7,23,0.08,4,Rain,311
2013-6-29,74,68,62,63,61,58,93,81,68,29.76,29.64,29.58,10,10,5,17,7,21,T,6,,41
2013-6-30,81,71,61,62,56,46,84,63,42,30.00,29.88,29.78,10,10,10,16,8,21,0.00,6,,38